| time (UTC) | temp F | wind direction | speed knots | gust knots | rain 1hr in | rain 24hr in | rain mn in | humidity % | barometer mb |
| 20260506033001 | 0 | 0.0 | 0.0 | 0.00 | 0.00 | 0.00 | 1000.3 | ||
| 20260506031501 | 0 | 0.0 | 0.0 | 0.00 | 0.00 | 0.00 | 1000.5 | ||
| 20260506030001 | 0 | 0.0 | 0.0 | 0.00 | 0.00 | 0.00 | 1000.6 | ||
| 20260506024502 | 0 | 0.0 | 0.0 | 0.00 | 0.00 | 0.00 | 1001.0 | ||
| 20260506023002 | 0 | 0.0 | 0.0 | 0.00 | 0.00 | 0.00 | 1001.0 | ||
| 20260506021501 | 0 | 0.0 | 0.0 | 0.00 | 0.00 | 0.00 | 1001.1 | ||
| 20260506020001 | 0 | 0.0 | 0.9 | 0.00 | 0.00 | 0.00 | 1001.2 | ||
| 20260506014501 | 0 | 0.0 | 0.0 | 0.00 | 0.00 | 0.00 | 1001.2 | ||
| 20260506013001 | 0 | 0.0 | 0.0 | 0.00 | 0.00 | 0.00 | 1001.4 | ||
| 20260506011502 | 0 | 0.0 | 2.6 | 0.00 | 0.00 | 0.00 | 1001.5 | ||
| 20260506010002 | 0 | 0.0 | 3.5 | 0.00 | 0.00 | 0.00 | 1001.4 | ||
| 20260506004501 | 0 | 0.9 | 2.6 | 0.00 | 0.00 | 0.00 | 1001.7 | ||
| 20260506003001 | 0 | 0.0 | 0.9 | 0.00 | 0.00 | 0.00 | 1001.9 | ||
| 20260506001501 | 0 | 0.0 | 1.7 | 0.03 | 0.00 | 0.00 | 1001.9 | ||
| 20260506000002 | 0 | 0.0 | 0.9 | 0.03 | 0.00 | 0.00 | 1002.8 | ||
| 20260505234502 | 0 | 1.7 | 2.6 | 0.03 | 0.00 | 0.00 | 1002.9 | ||
| 20260505233001 | 0 | 0.0 | 1.7 | 0.03 | 0.00 | 0.00 | 1003.7 | ||
| 20260505231501 | 0 | 0.9 | 2.6 | 0.00 | 0.00 | 0.00 | 1003.6 | ||
| 20260505230001 | 0 | 0.0 | 2.6 | 0.00 | 0.00 | 0.00 | 1002.6 | ||
| 20260505224502 | 0 | 0.0 | 2.6 | 0.00 | 0.00 | 0.00 | 1002.6 | ||
| 20260505223002 | 0 | 0.0 | 0.9 | 0.00 | 0.00 | 0.00 | 1003.1 | ||
| 20260505221503 | 0 | 0.0 | 0.0 | 0.00 | 0.00 | 0.00 | 1003.8 | ||
| 20260505220001 | 0 | 0.0 | 0.0 | 0.00 | 0.00 | 0.00 | 1003.9 | ||
| 20260505214502 | 0 | 0.0 | 0.9 | 0.00 | 0.00 | 0.00 | 1004.4 | ||
| 20260505213002 | 0 | 0.9 | 1.7 | 0.00 | 0.00 | 0.00 | 1004.5 | ||
| 20260505211501 | 0 | 0.9 | 0.9 | 0.00 | 0.00 | 0.00 | 1004.5 | ||
| 20260505210001 | 0 | 0.0 | 0.0 | 0.00 | 0.00 | 0.00 | 1004.6 | ||
| 20260505204501 | 0 | 0.0 | 0.0 | 0.00 | 0.00 | 0.00 | 1004.6 | ||
| 20260505203002 | 0 | 0.0 | 0.9 | 0.00 | 0.00 | 0.00 | 1004.6 | ||
| 20260505201502 | 0 | 0.0 | 0.0 | 0.00 | 0.00 | 0.00 | 1004.6 | ||
| 20260505200002 | 0 | 0.0 | 0.9 | 0.00 | 0.00 | 0.00 | 1004.5 | ||
| 20260505194501 | 0 | 0.0 | 0.9 | 0.00 | 0.00 | 0.00 | 1004.5 | ||
| 20260505193001 | 0 | 0.0 | 0.0 | 0.00 | 0.00 | 0.00 | 1004.3 | ||
| 20260505191501 | 0 | 0.0 | 0.0 | 0.00 | 0.00 | 0.00 | 1004.0 | ||
| 20260505190003 | 0 | 0.0 | 0.0 | 0.00 | 0.00 | 0.00 | 1004.0 | ||
| 20260505184502 | 0 | 0.0 | 0.0 | 0.00 | 0.00 | 0.00 | 1004.0 | ||
| 20260505183002 | 0 | 0.0 | 0.9 | 0.00 | 0.00 | 0.00 | 1003.9 | ||
| 20260505181502 | 0 | 0.0 | 0.0 | 0.00 | 0.00 | 0.00 | 1004.0 | ||
| 20260505180002 | 0 | 1.7 | 2.6 | 0.00 | 0.00 | 0.00 | 1003.8 | ||
| 20260505174502 | 0 | 0.9 | 2.6 | 0.00 | 0.00 | 0.00 | 1004.2 | ||
| 20260505173001 | 0 | 0.0 | 1.7 | 0.00 | 0.00 | 0.00 | 1004.3 | ||
| 20260505171501 | 0 | 0.0 | 3.5 | 0.00 | 0.00 | 0.00 | 1004.4 | ||
| 20260505170001 | 0 | 1.7 | 3.5 | 0.00 | 0.00 | 0.00 | 1004.4 | ||
| 20260505164502 | 0 | 0.9 | 3.5 | 0.00 | 0.00 | 0.00 | 1004.4 | ||
| 20260505163002 | 0 | 0.9 | 2.6 | 0.00 | 0.00 | 0.00 | 1004.4 | ||
| 20260505161501 | 0 | 0.0 | 0.9 | 0.00 | 0.00 | 0.00 | 1004.2 | ||
| 20260505153002 | 0 | 0.9 | 0.9 | 0.00 | 0.00 | 0.00 | 1004.5 | ||
| 20260505151502 | 0 | 0.0 | 2.6 | 0.00 | 0.00 | 0.00 | 1004.4 | ||
| 20260505124501 | 0 | 0.0 | 0.9 | 0.00 | 0.00 | 0.00 | 1005.0 | ||
| 20260505123002 | 0 | 0.0 | 2.6 | 0.00 | 0.00 | 0.00 | 1005.0 | ||
| 20260505121502 | 0 | 0.9 | 2.6 | 0.00 | 0.00 | 0.00 | 1004.8 | ||
| 20260505120001 | 0 | 0.0 | 1.7 | 0.00 | 0.00 | 0.00 | 1005.0 | ||
| 20260505114501 | 0 | 1.7 | 1.7 | 0.00 | 0.00 | 0.00 | 1004.9 | ||
| 20260505113001 | 0 | 0.0 | 0.9 | 0.00 | 0.00 | 0.00 | 1004.9 | ||
| 20260505111502 | 0 | 0.9 | 1.7 | 0.00 | 0.00 | 0.00 | 1005.0 | ||
| 20260505101501 | 0 | 0.0 | 0.0 | 0.00 | 0.00 | 0.00 | 1005.0 | ||
| 20260505100001 | 0 | 0.0 | 0.9 | 0.00 | 0.00 | 0.00 | 1005.0 | ||
| 20260505094502 | 0 | 0.9 | 1.7 | 0.00 | 0.00 | 0.00 | 1004.9 | ||
| 20260505093002 | 0 | 0.0 | 0.0 | 0.00 | 0.00 | 0.00 | 1004.8 | ||
| 20260505091501 | 0 | 0.0 | 0.0 | 0.00 | 0.00 | 0.00 | 1004.8 | ||
| 20260505090001 | 0 | 0.0 | 0.0 | 0.00 | 0.00 | 0.00 | 1004.7 | ||
| 20260505084501 | 0 | 0.0 | 0.9 | 0.00 | 0.00 | 0.00 | 1004.6 | ||
| 20260505083001 | 0 | 0.9 | 0.9 | 0.00 | 0.00 | 0.00 | 1004.4 | ||
| 20260505081502 | 0 | 0.0 | 0.0 | 0.00 | 0.00 | 0.00 | 1004.4 | ||
| 20260505080002 | 0 | 0.0 | 0.0 | 0.00 | 0.00 | 0.00 | 1004.5 | ||
| 20260505074501 | 0 | 1.7 | 2.6 | 0.00 | 0.00 | 0.00 | 1004.3 | ||
| 20260505073001 | 0 | 1.7 | 3.5 | 0.00 | 0.00 | 0.00 | 1004.5 | ||
| 20260505071501 | 0 | 0.0 | 0.9 | 0.00 | 0.00 | 0.00 | 1004.0 | ||
| 20260505070001 | 0 | 0.0 | 0.9 | 0.00 | 0.00 | 0.00 | 1003.7 | ||
| 20260505064502 | 0 | 0.0 | 0.0 | 0.00 | 0.00 | 0.00 | 1003.6 | ||
| 20260505063002 | 0 | 0.0 | 0.0 | 0.00 | 0.00 | 0.00 | 1003.5 | ||
| 20260505061501 | 0 | 0.0 | 0.0 | 0.00 | 0.00 | 0.00 | 1003.5 | ||
| 20260505060001 | 0 | 0.0 | 0.9 | 0.00 | 0.00 | 0.00 | 1003.4 | ||
| 20260505054501 | 0 | 0.0 | 0.0 | 0.00 | 0.00 | 0.00 | 1003.1 | ||
| 20260505053001 | 0 | 0.0 | 0.9 | 0.00 | 0.00 | 0.00 | 1003.0 | ||
| 20260505051502 | 0 | 0.0 | 0.9 | 0.00 | 0.00 | 0.00 | 1003.0 | ||
| 20260505041501 | 0 | 0.0 | 0.9 | 0.00 | 0.00 | 0.00 | 1003.0 | ||
| 20260505040001 | 0 | 0.0 | 2.6 | 0.00 | 0.00 | 0.00 | 1003.0 | ||
| 20260505034502 | 0 | 0.0 | 0.9 | 0.00 | 0.00 | 0.00 | 1003.1 |